createdAt,value
2023-03-14T00:01:24.358Z,70.54
2023-03-14T00:03:51.536Z,70.55
2023-03-14T00:06:21.351Z,70.48
2023-03-14T00:08:48.647Z,70.34
2023-03-14T00:11:18.824Z,70.47
2023-03-14T00:13:52.118Z,70.49
2023-03-14T00:16:20.522Z,70.57
2023-03-14T00:18:47.844Z,70.60
2023-03-14T00:21:14.942Z,70.55
2023-03-14T00:23:43.265Z,70.54
2023-03-14T00:26:13.596Z,70.47
2023-03-14T00:28:42.268Z,70.68
2023-03-14T00:31:12.536Z,70.71
2023-03-14T00:33:40.539Z,70.46
2023-03-14T00:36:10.745Z,70.62
2023-03-14T00:38:39.141Z,70.57
2023-03-14T00:41:13.056Z,70.61
2023-03-14T00:43:40.464Z,70.54
2023-03-14T00:46:07.998Z,70.37
2023-03-14T00:48:35.820Z,70.42
2023-03-14T00:51:04.580Z,70.33
2023-03-14T00:53:31.436Z,70.26
2023-03-14T00:55:58.342Z,70.27
2023-03-14T00:58:25.332Z,70.39
2023-03-14T01:00:52.257Z,70.31
2023-03-14T01:03:19.081Z,70.16
2023-03-14T01:05:46.073Z,70.12
2023-03-14T01:08:13.058Z,70.06
2023-03-14T01:10:41.496Z,70.16
2023-03-14T01:13:09.986Z,70.16
2023-03-14T01:15:38.583Z,70.09
2023-03-14T01:18:05.751Z,70.17
2023-03-14T01:20:32.680Z,70.12
2023-03-14T01:22:59.497Z,70.02
2023-03-14T01:25:26.568Z,70.07
2023-03-14T01:27:53.564Z,69.99
2023-03-14T01:30:20.587Z,70.09
2023-03-14T01:32:47.443Z,69.98
2023-03-14T01:35:14.451Z,69.97
2023-03-14T01:37:41.447Z,69.98
2023-03-14T01:40:12.960Z,70.15
2023-03-14T01:42:45.397Z,70.10
2023-03-14T01:45:49.796Z,70.12
2023-03-14T01:48:16.707Z,70.09
2023-03-14T01:50:43.757Z,70.22
2023-03-14T01:53:10.783Z,70.15
2023-03-14T01:55:38.650Z,70.07
2023-03-14T01:58:06.252Z,70.00
2023-03-14T02:00:33.199Z,69.92
2023-03-14T02:03:06.921Z,70.02
2023-03-14T02:05:39.051Z,70.07
2023-03-14T02:08:20.961Z,69.84
2023-03-14T02:10:52.797Z,69.80
2023-03-14T02:13:25.194Z,69.74
2023-03-14T02:17:07.291Z,69.83
2023-03-14T02:20:12.897Z,69.78
2023-03-14T02:22:45.376Z,69.74
2023-03-14T02:25:23.801Z,69.55
2023-03-14T02:27:51.263Z,69.49
2023-03-14T02:30:23.745Z,69.47
2023-03-14T02:32:59.508Z,69.34
2023-03-14T02:35:30.994Z,69.40
2023-03-14T02:38:16.112Z,69.35
2023-03-14T02:40:45.412Z,69.34
2023-03-14T02:43:12.534Z,69.39
2023-03-14T02:45:44.037Z,69.25
2023-03-14T02:48:22.288Z,69.29
2023-03-14T02:50:53.358Z,69.28
2023-03-14T02:53:27.587Z,69.26
2023-03-14T02:55:55.636Z,69.18
2023-03-14T02:58:25.322Z,69.02
2023-03-14T03:00:56.235Z,69.00
2023-03-14T03:03:23.725Z,68.92
2023-03-14T03:05:57.030Z,68.85
2023-03-14T03:08:27.154Z,68.87
2023-03-14T03:10:55.269Z,68.76
2023-03-14T03:13:22.230Z,68.84
2023-03-14T03:15:51.847Z,68.72
2023-03-14T03:18:19.214Z,68.77
2023-03-14T03:20:46.780Z,68.80
2023-03-14T03:23:14.033Z,68.84
2023-03-14T03:25:40.915Z,68.82
2023-03-14T03:28:09.128Z,68.81
2023-03-14T03:30:39.981Z,68.87
2023-03-14T03:33:07.253Z,68.83
2023-03-14T03:35:34.909Z,68.76
2023-03-14T03:38:02.155Z,68.88
2023-03-14T03:40:29.145Z,68.85
2023-03-14T03:42:56.009Z,68.87
2023-03-14T03:45:22.888Z,68.89
2023-03-14T03:47:52.727Z,68.90
2023-03-14T03:50:19.607Z,68.87
2023-03-14T03:52:46.639Z,68.95
2023-03-14T03:55:13.443Z,69.03
2023-03-14T03:57:40.441Z,69.06
2023-03-14T04:00:10.496Z,69.08
2023-03-14T04:02:46.510Z,69.10
2023-03-14T04:05:16.027Z,69.18
2023-03-14T04:07:49.245Z,69.22
2023-03-14T04:10:21.011Z,69.31
2023-03-14T04:13:02.391Z,69.26
2023-03-14T04:15:31.849Z,69.18
2023-03-14T04:18:02.139Z,69.12
2023-03-14T04:20:29.023Z,69.07
2023-03-14T04:22:55.890Z,69.07
2023-03-14T04:25:22.806Z,68.98
2023-03-14T04:27:54.059Z,68.97
2023-03-14T04:30:24.639Z,68.94
2023-03-14T04:32:54.571Z,68.92
2023-03-14T04:35:24.033Z,68.89
2023-03-14T04:37:54.388Z,68.89
2023-03-14T04:40:22.413Z,68.90
2023-03-14T04:42:51.452Z,68.95
2023-03-14T04:45:18.724Z,69.00
2023-03-14T04:47:46.209Z,68.87
2023-03-14T04:50:16.418Z,68.90
2023-03-14T04:52:43.636Z,68.98
2023-03-14T04:55:10.475Z,69.01
2023-03-14T04:57:37.314Z,69.01
2023-03-14T05:00:08.524Z,69.07
2023-03-14T05:02:58.016Z,69.15
2023-03-14T05:05:33.208Z,69.24
2023-03-14T05:08:16.107Z,69.25
2023-03-14T05:11:04.021Z,69.29
2023-03-14T05:13:50.608Z,69.21
2023-03-14T05:16:34.568Z,69.27
2023-03-14T05:19:15.033Z,69.21
2023-03-14T05:22:00.713Z,69.16
2023-03-14T05:24:37.385Z,69.19
2023-03-14T05:27:13.118Z,69.16
2023-03-14T05:30:07.030Z,69.13
2023-03-14T05:32:41.973Z,69.12
2023-03-14T05:35:12.054Z,69.05
2023-03-14T05:38:01.788Z,68.95
2023-03-14T05:40:31.587Z,69.09
2023-03-14T05:43:05.613Z,68.99
2023-03-14T05:45:58.751Z,68.96
2023-03-14T05:48:44.476Z,68.97
2023-03-14T05:51:35.060Z,69.12
2023-03-14T05:54:20.575Z,69.05
2023-03-14T05:56:56.599Z,68.84
2023-03-14T05:59:29.687Z,68.52
2023-03-14T06:02:10.729Z,68.30
2023-03-14T06:04:44.511Z,68.00
2023-03-14T06:07:11.392Z,67.86
2023-03-14T06:09:39.186Z,67.61
2023-03-14T06:12:08.344Z,67.39
2023-03-14T06:14:40.383Z,66.97
2023-03-14T06:17:07.483Z,67.19
2023-03-14T06:19:39.810Z,67.39
2023-03-14T06:22:06.716Z,66.97
2023-03-14T06:24:38.670Z,66.82
2023-03-14T06:27:05.611Z,66.96
2023-03-14T06:29:32.708Z,67.07
2023-03-14T06:32:03.218Z,66.49
2023-03-14T06:34:30.104Z,66.73
2023-03-14T06:36:57.296Z,66.26
2023-03-14T06:39:24.335Z,66.58
2023-03-14T06:41:59.858Z,65.96
2023-03-14T06:44:26.930Z,65.05
2023-03-14T06:46:53.885Z,63.89
2023-03-14T06:49:21.543Z,64.01
2023-03-14T06:51:52.254Z,64.03
2023-03-14T06:54:19.427Z,64.37
2023-03-14T06:56:47.555Z,64.52
2023-03-14T06:59:14.810Z,64.63
2023-03-14T07:01:42.316Z,65.01
2023-03-14T07:04:11.531Z,65.62
2023-03-14T07:06:45.242Z,65.50
2023-03-14T07:09:15.196Z,65.81
2023-03-14T07:11:47.702Z,65.96
2023-03-14T07:14:15.315Z,65.95
2023-03-14T07:16:42.304Z,66.09
2023-03-14T07:19:09.411Z,66.28
2023-03-14T07:21:37.074Z,66.51
2023-03-14T07:24:06.868Z,66.99
2023-03-14T07:26:33.891Z,66.68
2023-03-14T07:29:00.970Z,66.61
2023-03-14T07:31:27.870Z,66.33
2023-03-14T07:33:54.963Z,66.10
2023-03-14T07:36:22.749Z,66.36
2023-03-14T07:38:49.668Z,66.13
2023-03-14T07:41:30.219Z,65.99
2023-03-14T07:44:15.852Z,65.78
2023-03-14T07:46:42.782Z,65.93
2023-03-14T07:49:09.664Z,65.93
2023-03-14T07:51:36.535Z,66.05
2023-03-14T07:54:03.425Z,66.12
2023-03-14T07:56:30.279Z,66.65
2023-03-14T07:58:58.278Z,67.00
2023-03-14T08:01:25.184Z,67.80
2023-03-14T08:03:52.028Z,68.59
2023-03-14T08:06:18.984Z,68.30
2023-03-14T08:08:45.900Z,67.49
2023-03-14T08:11:12.816Z,66.18
2023-03-14T08:13:40.452Z,65.59
2023-03-14T08:16:07.763Z,65.03
2023-03-14T08:18:37.663Z,63.85
2023-03-14T08:21:04.611Z,63.12
2023-03-14T08:23:31.800Z,63.55
2023-03-14T08:25:59.060Z,64.00
2023-03-14T08:28:31.435Z,63.43
2023-03-14T08:30:58.805Z,62.26
2023-03-14T08:33:26.943Z,61.56
2023-03-14T08:35:55.314Z,60.88
2023-03-14T08:38:22.826Z,60.19
2023-03-14T08:40:51.237Z,59.72
2023-03-14T08:43:18.045Z,60.55
2023-03-14T08:45:44.884Z,60.48
2023-03-14T08:48:11.680Z,60.41
2023-03-14T08:50:38.617Z,60.41
2023-03-14T08:53:05.674Z,59.79
2023-03-14T08:55:33.212Z,58.95
2023-03-14T08:58:00.178Z,59.14
2023-03-14T09:00:27.208Z,59.67
2023-03-14T09:02:54.140Z,59.49
2023-03-14T09:05:21.249Z,58.87
2023-03-14T09:07:50.677Z,58.78
2023-03-14T09:10:17.958Z,58.39
2023-03-14T09:12:44.940Z,58.69
2023-03-14T09:15:12.088Z,58.81
2023-03-14T09:17:38.971Z,58.66
2023-03-14T09:20:10.160Z,58.00
2023-03-14T09:22:37.569Z,58.72
2023-03-14T09:25:05.905Z,58.68
2023-03-14T09:27:32.852Z,57.48
2023-03-14T09:29:59.735Z,57.18
2023-03-14T09:32:26.795Z,57.40
2023-03-14T09:34:53.799Z,57.54
2023-03-14T09:37:21.384Z,56.54
2023-03-14T09:39:48.366Z,56.07
2023-03-14T09:42:20.480Z,56.61
2023-03-14T09:44:54.522Z,56.61
2023-03-14T09:47:22.962Z,56.05
2023-03-14T09:49:49.995Z,55.35
2023-03-14T09:52:20.347Z,55.25
2023-03-14T09:54:58.492Z,55.77
2023-03-14T09:57:27.917Z,55.05
2023-03-14T10:00:00.064Z,55.03
2023-03-14T10:02:36.488Z,55.96
2023-03-14T10:05:09.642Z,54.93
2023-03-14T10:07:36.601Z,54.19
2023-03-14T10:10:16.973Z,53.68
2023-03-14T10:12:49.189Z,54.76
2023-03-14T10:15:26.382Z,54.65
2023-03-14T10:17:53.828Z,54.80
2023-03-14T10:20:28.689Z,54.91
2023-03-14T10:22:56.596Z,55.92
2023-03-14T10:25:35.985Z,55.68
2023-03-14T10:28:04.890Z,55.20
2023-03-14T10:30:39.946Z,54.30
2023-03-14T10:33:28.819Z,53.02
2023-03-14T10:36:01.578Z,53.35
2023-03-14T10:38:34.073Z,53.63
2023-03-14T10:41:02.293Z,53.89
2023-03-14T10:43:35.393Z,54.39
2023-03-14T10:46:09.659Z,54.51
2023-03-14T10:48:56.682Z,53.92
2023-03-14T10:51:29.609Z,54.08
2023-03-14T10:54:12.783Z,55.27
2023-03-14T10:56:39.708Z,56.27
2023-03-14T10:59:15.749Z,55.76
2023-03-14T11:01:45.964Z,55.16
2023-03-14T11:04:49.877Z,54.86
2023-03-14T11:07:30.469Z,54.71
2023-03-14T11:10:12.954Z,54.50
2023-03-14T11:13:09.055Z,53.31
2023-03-14T11:15:44.011Z,52.52
2023-03-14T11:18:29.277Z,52.64
2023-03-14T11:21:19.574Z,52.66
2023-03-14T11:24:01.457Z,52.62
2023-03-14T11:26:31.339Z,52.99
2023-03-14T11:29:24.262Z,53.15
2023-03-14T11:31:56.415Z,53.21
2023-03-14T11:34:48.241Z,53.59
2023-03-14T11:37:15.227Z,53.77
2023-03-14T11:39:49.431Z,53.71
2023-03-14T11:42:18.563Z,53.90
2023-03-14T11:44:49.077Z,54.13
2023-03-14T11:47:25.868Z,54.30
2023-03-14T11:50:27.001Z,54.57
2023-03-14T11:52:59.746Z,54.64
2023-03-14T11:55:31.791Z,54.58
2023-03-14T11:58:14.644Z,54.72
2023-03-14T12:00:43.321Z,54.66
2023-03-14T12:03:25.459Z,54.68
2023-03-14T12:06:11.900Z,54.80
2023-03-14T12:08:47.303Z,54.66
2023-03-14T12:11:14.608Z,54.64
2023-03-14T12:13:47.177Z,54.76
2023-03-14T12:16:26.027Z,54.92
2023-03-14T12:18:54.497Z,54.95
2023-03-14T12:21:41.888Z,54.98
2023-03-14T12:24:21.551Z,54.66
2023-03-14T12:26:57.970Z,54.53
2023-03-14T12:29:26.100Z,54.69
2023-03-14T12:32:01.932Z,54.72
2023-03-14T12:34:31.762Z,54.84
2023-03-14T12:37:26.924Z,55.00
2023-03-14T12:40:20.391Z,54.88
2023-03-14T12:43:00.492Z,54.80
2023-03-14T12:45:32.485Z,55.00
2023-03-14T12:48:26.238Z,55.10
2023-03-14T12:51:13.465Z,55.26
2023-03-14T12:54:14.764Z,55.10
2023-03-14T12:56:52.304Z,55.23
2023-03-14T12:59:41.927Z,55.25
2023-03-14T13:02:09.218Z,55.40
2023-03-14T13:04:45.901Z,55.33
2023-03-14T13:07:34.440Z,55.30
2023-03-14T13:13:02.743Z,55.49
2023-03-14T13:15:35.791Z,55.47
2023-03-14T13:18:11.354Z,55.51
2023-03-14T13:20:44.177Z,55.35
2023-03-14T13:23:25.805Z,55.50
2023-03-14T13:25:53.968Z,55.30
2023-03-14T13:28:21.640Z,55.22
2023-03-14T13:30:51.530Z,55.31
2023-03-14T13:33:21.450Z,55.20
2023-03-14T13:35:50.237Z,55.27
2023-03-14T13:38:26.031Z,55.26
2023-03-14T13:41:00.588Z,55.14
2023-03-14T13:43:33.591Z,55.39
2023-03-14T13:46:08.354Z,55.17
2023-03-14T13:48:44.389Z,55.44
2023-03-14T13:51:14.701Z,55.52
2023-03-14T13:53:51.779Z,55.52
2023-03-14T13:56:20.466Z,55.39
2023-03-14T13:58:47.745Z,55.73
2023-03-14T14:01:36.358Z,55.93
2023-03-14T14:04:16.312Z,55.86
2023-03-14T14:06:49.403Z,56.12
2023-03-14T14:09:22.028Z,56.48
2023-03-14T14:12:14.429Z,56.87
2023-03-14T14:14:51.355Z,56.88
2023-03-14T14:17:34.240Z,57.05
2023-03-14T14:20:05.840Z,57.03
2023-03-14T14:22:34.021Z,57.14
2023-03-14T14:25:03.071Z,57.31
2023-03-14T14:27:40.448Z,57.16
2023-03-14T14:30:19.614Z,57.33
2023-03-14T14:32:50.525Z,57.46
2023-03-14T14:35:35.893Z,57.56
2023-03-14T14:38:10.013Z,57.73
2023-03-14T14:40:46.769Z,57.86
2023-03-14T14:43:19.916Z,58.05
2023-03-14T14:45:51.154Z,58.14
2023-03-14T14:48:22.783Z,58.26
2023-03-14T14:50:58.456Z,58.16
2023-03-14T14:53:45.775Z,58.25
2023-03-14T14:56:23.662Z,58.39
2023-03-14T14:58:50.779Z,58.34
2023-03-14T15:01:24.284Z,58.49
2023-03-14T15:03:54.223Z,58.46
2023-03-14T15:06:21.799Z,58.32
2023-03-14T15:08:50.196Z,58.58
2023-03-14T15:11:20.455Z,58.52
2023-03-14T15:13:50.483Z,58.74
2023-03-14T15:16:21.776Z,58.88
2023-03-14T15:19:03.273Z,59.06
2023-03-14T15:21:34.819Z,59.23
2023-03-14T15:24:02.246Z,59.34
2023-03-14T15:26:30.504Z,59.43
2023-03-14T15:28:57.711Z,59.67
2023-03-14T15:31:24.814Z,60.02
2023-03-14T15:33:51.953Z,60.35
2023-03-14T15:36:28.772Z,60.36
2023-03-14T15:38:57.123Z,60.22
2023-03-14T15:41:24.534Z,60.33
2023-03-14T15:43:52.609Z,60.47
2023-03-14T15:46:20.137Z,60.51
2023-03-14T15:48:47.483Z,60.70
2023-03-14T15:51:15.209Z,60.51
2023-03-14T15:53:44.412Z,60.61
2023-03-14T15:56:17.507Z,60.88
2023-03-14T15:58:47.736Z,60.93
2023-03-14T16:01:17.323Z,61.07
2023-03-14T16:03:46.374Z,61.14
2023-03-14T16:06:14.790Z,61.26
2023-03-14T16:08:43.618Z,61.27
2023-03-14T16:11:12.695Z,61.26
2023-03-14T16:13:40.170Z,61.29
2023-03-14T16:16:08.866Z,61.40
2023-03-14T16:18:38.644Z,61.28
2023-03-14T16:21:18.295Z,61.46
2023-03-14T16:23:46.426Z,61.49
2023-03-14T16:26:19.281Z,61.71
2023-03-14T16:28:48.319Z,61.69
2023-03-14T16:31:18.711Z,61.68
2023-03-14T16:33:45.960Z,61.77
2023-03-14T16:36:14.726Z,61.95
2023-03-14T16:38:43.919Z,61.99
2023-03-14T16:41:20.114Z,62.13
2023-03-14T16:43:52.318Z,62.27
2023-03-14T16:46:22.778Z,62.41
2023-03-14T16:48:50.126Z,62.47
2023-03-14T16:51:17.848Z,62.47
2023-03-14T16:53:46.342Z,62.64
2023-03-14T16:56:14.650Z,62.62
2023-03-14T16:58:42.696Z,62.58
2023-03-14T17:01:12.721Z,62.77
2023-03-14T17:03:45.724Z,62.79
2023-03-14T17:06:15.607Z,62.75
2023-03-14T17:08:43.398Z,62.91
2023-03-14T17:11:11.359Z,62.95
2023-03-14T17:13:39.354Z,63.15
2023-03-14T17:16:07.189Z,63.00
2023-03-14T17:18:36.848Z,63.05
2023-03-14T17:21:05.046Z,63.03
2023-03-14T17:23:33.525Z,63.10
2023-03-14T17:26:00.978Z,62.98
2023-03-14T17:28:28.376Z,63.13
2023-03-14T17:31:09.783Z,63.18
2023-03-14T17:33:37.558Z,63.17
2023-03-14T17:36:08.296Z,63.28
2023-03-14T17:38:36.962Z,63.30
2023-03-14T17:41:08.057Z,63.47
2023-03-14T17:43:35.466Z,63.39
2023-03-14T17:46:14.643Z,63.26
2023-03-14T17:48:43.211Z,63.27
2023-03-14T17:51:11.470Z,63.37
2023-03-14T17:53:39.365Z,63.40
2023-03-14T17:56:07.545Z,63.39
2023-03-14T17:58:37.786Z,63.34
2023-03-14T18:01:19.747Z,63.47
2023-03-14T18:03:48.365Z,63.44
2023-03-14T18:06:17.970Z,63.64
2023-03-14T18:08:46.991Z,63.61
2023-03-14T18:11:14.426Z,63.68
2023-03-14T18:13:42.403Z,63.57
2023-03-14T18:16:15.516Z,63.46
2023-03-14T18:18:49.525Z,63.64
2023-03-14T18:21:19.958Z,63.82
2023-03-14T18:23:48.935Z,63.87
2023-03-14T18:26:16.129Z,63.92
2023-03-14T18:28:43.235Z,63.82
2023-03-14T18:31:13.284Z,63.91
2023-03-14T18:33:45.608Z,63.87
2023-03-14T18:36:13.293Z,63.77
2023-03-14T18:38:43.874Z,63.76
2023-03-14T18:41:14.161Z,63.91
2023-03-14T18:43:42.300Z,63.98
2023-03-14T18:46:12.895Z,63.90
2023-03-14T18:48:42.757Z,63.76
2023-03-14T18:51:15.593Z,63.68
2023-03-14T18:53:43.756Z,63.90
2023-03-14T18:56:14.089Z,63.89
2023-03-14T18:58:41.878Z,63.91
2023-03-14T19:01:10.632Z,63.83
2023-03-14T19:03:38.104Z,63.78
2023-03-14T19:06:07.953Z,63.76
2023-03-14T19:08:36.801Z,63.80
2023-03-14T19:11:06.178Z,63.59
2023-03-14T19:13:35.341Z,63.68
2023-03-14T19:16:04.372Z,63.70
2023-03-14T19:18:33.420Z,63.68
2023-03-14T19:21:09.167Z,63.74
2023-03-14T19:23:38.328Z,63.51
2023-03-14T19:26:07.113Z,63.59
2023-03-14T19:28:34.248Z,63.73
2023-03-14T19:31:05.498Z,63.79
2023-03-14T19:33:33.237Z,63.88
2023-03-14T19:36:02.785Z,63.72
2023-03-14T19:38:29.987Z,63.79
2023-03-14T19:40:59.028Z,63.71
2023-03-14T19:43:27.014Z,63.76
2023-03-14T19:45:56.062Z,63.93
2023-03-14T19:48:30.720Z,64.05
2023-03-14T19:51:00.300Z,63.89
2023-03-14T19:53:29.229Z,64.05
2023-03-14T19:55:56.366Z,64.11
2023-03-14T19:58:25.051Z,64.15
2023-03-14T20:00:52.365Z,64.14
2023-03-14T20:03:19.649Z,64.19
2023-03-14T20:05:46.762Z,64.26
2023-03-14T20:08:13.984Z,64.27
2023-03-14T20:10:41.449Z,64.44
2023-03-14T20:13:20.845Z,64.36
2023-03-14T20:15:48.832Z,64.34
2023-03-14T20:18:15.814Z,64.38
2023-03-14T20:20:42.912Z,64.46
2023-03-14T20:23:10.631Z,64.53
2023-03-14T20:25:38.082Z,64.67
2023-03-14T20:28:05.569Z,64.67
2023-03-14T20:30:33.390Z,64.50
2023-03-14T20:33:04.890Z,64.60
2023-03-14T20:35:32.598Z,64.49
2023-03-14T20:37:59.713Z,64.53
2023-03-14T20:40:28.995Z,64.66
2023-03-14T20:42:56.858Z,64.61
2023-03-14T20:45:23.842Z,64.68
2023-03-14T20:47:51.212Z,64.63
2023-03-14T20:50:18.457Z,64.62
2023-03-14T20:52:45.560Z,64.55
2023-03-14T20:55:12.991Z,64.47
2023-03-14T20:57:39.867Z,64.67
2023-03-14T21:00:08.426Z,64.80
2023-03-14T21:05:20.593Z,64.78
2023-03-14T21:07:48.082Z,64.98
2023-03-14T21:10:15.360Z,64.93
2023-03-14T21:12:42.494Z,64.89
2023-03-14T21:15:10.403Z,65.08
2023-03-14T21:17:39.731Z,65.14
2023-03-14T21:20:11.597Z,65.11
2023-03-14T21:22:38.925Z,65.07
2023-03-14T21:25:09.425Z,65.05
2023-03-14T21:27:39.964Z,65.05
2023-03-14T21:30:08.556Z,65.19
2023-03-14T21:32:35.524Z,65.37
2023-03-14T21:35:02.564Z,65.26
2023-03-14T21:37:29.583Z,65.22
2023-03-14T21:39:56.813Z,65.22
2023-03-14T21:42:24.677Z,65.24
2023-03-14T21:44:52.439Z,65.31
2023-03-14T21:47:23.832Z,65.21
2023-03-14T21:49:52.127Z,65.30
2023-03-14T21:52:19.097Z,65.29
2023-03-14T21:54:46.050Z,65.23
2023-03-14T21:57:14.818Z,65.30
2023-03-14T21:59:44.253Z,65.29
2023-03-14T22:02:15.272Z,65.25
2023-03-14T22:04:45.452Z,65.39
2023-03-14T22:07:17.334Z,65.41
2023-03-14T22:09:46.062Z,65.43
2023-03-14T22:12:19.940Z,65.37
2023-03-14T22:14:48.360Z,65.45
2023-03-14T22:17:16.370Z,65.52
2023-03-14T22:19:43.687Z,65.53
2023-03-14T22:22:10.733Z,65.54
2023-03-14T22:24:37.791Z,65.70
2023-03-14T22:27:05.082Z,65.72
2023-03-14T22:29:37.906Z,65.70
2023-03-14T22:32:06.729Z,65.58
2023-03-14T22:34:36.724Z,65.65
2023-03-14T22:37:06.268Z,65.72
2023-03-14T22:39:33.966Z,65.79
2023-03-14T22:42:01.387Z,65.89
2023-03-14T22:44:33.217Z,65.75
2023-03-14T22:47:02.543Z,65.93
2023-03-14T22:49:33.196Z,65.99
2023-03-14T22:52:00.143Z,65.94
2023-03-14T22:54:28.054Z,65.93
2023-03-14T22:56:55.017Z,66.00
2023-03-14T22:59:21.982Z,66.06
2023-03-14T23:01:48.939Z,66.03
2023-03-14T23:04:16.080Z,66.03
2023-03-14T23:06:43.182Z,66.03
2023-03-14T23:09:12.229Z,65.92
2023-03-14T23:11:40.296Z,65.97
2023-03-14T23:14:07.779Z,66.01
2023-03-14T23:16:40.622Z,66.09
2023-03-14T23:19:10.017Z,66.17
2023-03-14T23:21:37.367Z,66.11
2023-03-14T23:24:06.295Z,66.08
2023-03-14T23:26:35.645Z,66.14
2023-03-14T23:29:07.402Z,66.17
2023-03-14T23:31:34.576Z,66.15
2023-03-14T23:34:01.541Z,66.19
2023-03-14T23:36:28.388Z,66.22
2023-03-14T23:38:55.261Z,66.12
2023-03-14T23:41:22.205Z,66.19
2023-03-14T23:43:49.418Z,66.28
2023-03-14T23:46:17.394Z,66.28
2023-03-14T23:48:47.330Z,66.20
2023-03-14T23:51:15.519Z,66.25
2023-03-14T23:53:43.107Z,66.27
2023-03-14T23:56:12.808Z,66.27
2023-03-14T23:58:41.051Z,66.39
